sensor_id;sensor_type;location;lat;lon;timestamp;P1;durP1;ratioP1;P2;durP2;ratioP2
49910;SDS011;35803;53.096;5.844;2023-02-21T00:00:33;14.45;;;6.07;;
49910;SDS011;35803;53.096;5.844;2023-02-21T00:03:17;14.68;;;5.70;;
49910;SDS011;35803;53.096;5.844;2023-02-21T00:06:01;11.70;;;5.53;;
49910;SDS011;35803;53.096;5.844;2023-02-21T00:08:45;10.70;;;4.93;;
49910;SDS011;35803;53.096;5.844;2023-02-21T00:11:29;13.93;;;5.53;;
49910;SDS011;35803;53.096;5.844;2023-02-21T00:14:13;14.25;;;5.63;;
49910;SDS011;35803;53.096;5.844;2023-02-21T00:16:58;12.55;;;5.30;;
49910;SDS011;35803;53.096;5.844;2023-02-21T00:19:45;9.82;;;4.90;;
49910;SDS011;35803;53.096;5.844;2023-02-21T00:22:29;11.80;;;5.30;;
49910;SDS011;35803;53.096;5.844;2023-02-21T00:25:13;11.75;;;4.88;;
49910;SDS011;35803;53.096;5.844;2023-02-21T00:27:59;13.68;;;4.53;;
49910;SDS011;35803;53.096;5.844;2023-02-21T00:30:43;9.80;;;4.20;;
49910;SDS011;35803;53.096;5.844;2023-02-21T00:33:27;11.32;;;5.03;;
49910;SDS011;35803;53.096;5.844;2023-02-21T00:36:14;15.48;;;5.97;;
49910;SDS011;35803;53.096;5.844;2023-02-21T00:38:59;13.88;;;5.13;;
49910;SDS011;35803;53.096;5.844;2023-02-21T00:41:43;12.20;;;4.65;;
49910;SDS011;35803;53.096;5.844;2023-02-21T00:44:27;16.35;;;5.85;;
49910;SDS011;35803;53.096;5.844;2023-02-21T00:47:11;10.90;;;4.55;;
49910;SDS011;35803;53.096;5.844;2023-02-21T00:49:55;11.43;;;5.25;;
49910;SDS011;35803;53.096;5.844;2023-02-21T00:52:39;11.27;;;5.03;;
49910;SDS011;35803;53.096;5.844;2023-02-21T00:55:23;12.25;;;6.05;;
49910;SDS011;35803;53.096;5.844;2023-02-21T00:58:07;12.75;;;5.63;;
49910;SDS011;35803;53.096;5.844;2023-02-21T01:00:51;12.05;;;5.40;;
49910;SDS011;35803;53.096;5.844;2023-02-21T01:03:35;15.57;;;6.07;;
49910;SDS011;35803;53.096;5.844;2023-02-21T01:06:19;14.98;;;6.25;;
49910;SDS011;35803;53.096;5.844;2023-02-21T01:09:03;14.38;;;6.20;;
49910;SDS011;35803;53.096;5.844;2023-02-21T01:11:48;12.40;;;6.30;;
49910;SDS011;35803;53.096;5.844;2023-02-21T01:14:32;16.98;;;7.30;;
49910;SDS011;35803;53.096;5.844;2023-02-21T01:17:16;14.38;;;7.55;;
49910;SDS011;35803;53.096;5.844;2023-02-21T01:20:01;11.80;;;6.25;;
49910;SDS011;35803;53.096;5.844;2023-02-21T01:22:45;11.63;;;6.43;;
49910;SDS011;35803;53.096;5.844;2023-02-21T01:25:30;12.18;;;6.35;;
49910;SDS011;35803;53.096;5.844;2023-02-21T01:28:17;15.60;;;7.13;;
49910;SDS011;35803;53.096;5.844;2023-02-21T01:31:01;16.63;;;7.00;;
49910;SDS011;35803;53.096;5.844;2023-02-21T01:33:45;13.90;;;8.05;;
49910;SDS011;35803;53.096;5.844;2023-02-21T01:36:29;18.80;;;7.90;;
49910;SDS011;35803;53.096;5.844;2023-02-21T01:39:14;17.15;;;7.30;;
49910;SDS011;35803;53.096;5.844;2023-02-21T01:41:58;18.38;;;7.90;;
49910;SDS011;35803;53.096;5.844;2023-02-21T01:44:43;15.25;;;7.05;;
49910;SDS011;35803;53.096;5.844;2023-02-21T01:47:31;19.65;;;7.53;;
49910;SDS011;35803;53.096;5.844;2023-02-21T01:50:20;16.23;;;6.70;;
49910;SDS011;35803;53.096;5.844;2023-02-21T01:53:10;14.48;;;7.22;;
49910;SDS011;35803;53.096;5.844;2023-02-21T01:55:57;19.50;;;7.82;;
49910;SDS011;35803;53.096;5.844;2023-02-21T01:58:43;17.63;;;7.68;;
49910;SDS011;35803;53.096;5.844;2023-02-21T02:01:31;18.60;;;7.13;;
49910;SDS011;35803;53.096;5.844;2023-02-21T02:04:36;14.70;;;7.07;;
49910;SDS011;35803;53.096;5.844;2023-02-21T02:07:20;16.48;;;7.25;;
49910;SDS011;35803;53.096;5.844;2023-02-21T02:10:04;16.05;;;7.10;;
49910;SDS011;35803;53.096;5.844;2023-02-21T02:12:54;18.83;;;7.13;;
49910;SDS011;35803;53.096;5.844;2023-02-21T02:36:38;16.77;;;7.20;;
49910;SDS011;35803;53.096;5.844;2023-02-21T02:45:01;22.38;;;7.90;;
49910;SDS011;35803;53.096;5.844;2023-02-21T02:47:31;16.73;;;7.50;;
49910;SDS011;35803;53.096;5.844;2023-02-21T02:49:58;15.25;;;7.72;;
49910;SDS011;35803;53.096;5.844;2023-02-21T02:52:25;18.05;;;8.00;;
49910;SDS011;35803;53.096;5.844;2023-02-21T02:55:00;16.85;;;7.75;;
49910;SDS011;35803;53.096;5.844;2023-02-21T02:57:28;18.05;;;8.45;;
49910;SDS011;35803;53.096;5.844;2023-02-21T03:00:01;20.15;;;7.68;;
49910;SDS011;35803;53.096;5.844;2023-02-21T03:03:02;15.98;;;7.97;;
49910;SDS011;35803;53.096;5.844;2023-02-21T03:10:47;21.08;;;9.00;;
49910;SDS011;35803;53.096;5.844;2023-02-21T03:15:55;20.48;;;8.93;;
49910;SDS011;35803;53.096;5.844;2023-02-21T03:20:58;18.23;;;9.13;;
49910;SDS011;35803;53.096;5.844;2023-02-21T03:23:26;21.92;;;9.68;;
49910;SDS011;35803;53.096;5.844;2023-02-21T03:25:53;16.88;;;9.13;;
49910;SDS011;35803;53.096;5.844;2023-02-21T03:28:21;18.58;;;9.02;;
49910;SDS011;35803;53.096;5.844;2023-02-21T03:30:48;20.33;;;10.25;;
49910;SDS011;35803;53.096;5.844;2023-02-21T03:33:15;21.90;;;10.40;;
49910;SDS011;35803;53.096;5.844;2023-02-21T03:35:41;19.42;;;9.77;;
49910;SDS011;35803;53.096;5.844;2023-02-21T03:38:07;21.65;;;10.15;;
49910;SDS011;35803;53.096;5.844;2023-02-21T03:40:34;21.83;;;10.35;;
49910;SDS011;35803;53.096;5.844;2023-02-21T03:43:01;19.13;;;10.13;;
49910;SDS011;35803;53.096;5.844;2023-02-21T03:45:27;20.52;;;10.82;;
49910;SDS011;35803;53.096;5.844;2023-02-21T03:47:53;18.05;;;9.55;;
49910;SDS011;35803;53.096;5.844;2023-02-21T03:50:18;21.45;;;10.20;;
49910;SDS011;35803;53.096;5.844;2023-02-21T03:52:44;22.50;;;10.55;;
49910;SDS011;35803;53.096;5.844;2023-02-21T03:55:10;23.30;;;11.38;;
49910;SDS011;35803;53.096;5.844;2023-02-21T03:57:35;23.33;;;11.00;;
49910;SDS011;35803;53.096;5.844;2023-02-21T04:00:01;21.85;;;10.05;;
49910;SDS011;35803;53.096;5.844;2023-02-21T04:02:27;20.73;;;10.50;;
49910;SDS011;35803;53.096;5.844;2023-02-21T04:04:52;23.83;;;10.52;;
49910;SDS011;35803;53.096;5.844;2023-02-21T04:07:19;23.67;;;10.68;;
49910;SDS011;35803;53.096;5.844;2023-02-21T04:09:45;26.25;;;10.10;;
49910;SDS011;35803;53.096;5.844;2023-02-21T04:12:12;20.42;;;10.43;;
49910;SDS011;35803;53.096;5.844;2023-02-21T04:14:37;22.63;;;10.38;;
49910;SDS011;35803;53.096;5.844;2023-02-21T04:17:03;24.35;;;9.43;;
49910;SDS011;35803;53.096;5.844;2023-02-21T04:19:28;21.88;;;9.60;;
49910;SDS011;35803;53.096;5.844;2023-02-21T04:21:54;21.52;;;9.45;;
49910;SDS011;35803;53.096;5.844;2023-02-21T04:24:19;21.35;;;10.10;;
49910;SDS011;35803;53.096;5.844;2023-02-21T04:26:47;19.92;;;9.68;;
49910;SDS011;35803;53.096;5.844;2023-02-21T04:29:13;22.92;;;10.48;;
49910;SDS011;35803;53.096;5.844;2023-02-21T04:31:38;23.52;;;9.90;;
49910;SDS011;35803;53.096;5.844;2023-02-21T04:34:03;25.65;;;9.68;;
49910;SDS011;35803;53.096;5.844;2023-02-21T04:36:29;24.27;;;9.52;;
49910;SDS011;35803;53.096;5.844;2023-02-21T04:38:55;23.80;;;9.60;;
49910;SDS011;35803;53.096;5.844;2023-02-21T04:41:20;24.13;;;9.10;;
49910;SDS011;35803;53.096;5.844;2023-02-21T04:43:46;18.20;;;9.45;;
49910;SDS011;35803;53.096;5.844;2023-02-21T04:46:12;23.40;;;10.85;;
49910;SDS011;35803;53.096;5.844;2023-02-21T04:48:41;19.55;;;9.52;;
49910;SDS011;35803;53.096;5.844;2023-02-21T04:51:12;22.30;;;9.57;;
49910;SDS011;35803;53.096;5.844;2023-02-21T04:53:39;19.23;;;9.43;;
49910;SDS011;35803;53.096;5.844;2023-02-21T04:56:05;21.05;;;9.75;;
49910;SDS011;35803;53.096;5.844;2023-02-21T04:58:31;20.63;;;9.80;;
49910;SDS011;35803;53.096;5.844;2023-02-21T05:00:56;20.20;;;9.25;;
49910;SDS011;35803;53.096;5.844;2023-02-21T05:03:22;18.70;;;10.10;;
49910;SDS011;35803;53.096;5.844;2023-02-21T05:05:48;24.48;;;10.93;;
49910;SDS011;35803;53.096;5.844;2023-02-21T05:08:14;21.60;;;9.95;;
49910;SDS011;35803;53.096;5.844;2023-02-21T05:10:39;19.65;;;8.60;;
49910;SDS011;35803;53.096;5.844;2023-02-21T05:13:05;21.52;;;9.65;;
49910;SDS011;35803;53.096;5.844;2023-02-21T05:15:30;22.75;;;10.25;;
49910;SDS011;35803;53.096;5.844;2023-02-21T05:17:56;22.55;;;10.15;;
49910;SDS011;35803;53.096;5.844;2023-02-21T05:20:21;21.20;;;9.55;;
49910;SDS011;35803;53.096;5.844;2023-02-21T05:22:47;19.92;;;9.13;;
49910;SDS011;35803;53.096;5.844;2023-02-21T05:25:17;22.60;;;10.00;;
49910;SDS011;35803;53.096;5.844;2023-02-21T05:27:44;23.80;;;10.10;;
49910;SDS011;35803;53.096;5.844;2023-02-21T05:30:11;20.80;;;9.50;;
49910;SDS011;35803;53.096;5.844;2023-02-21T05:32:37;21.58;;;10.00;;
49910;SDS011;35803;53.096;5.844;2023-02-21T05:35:03;22.40;;;10.43;;
49910;SDS011;35803;53.096;5.844;2023-02-21T05:37:29;23.55;;;9.63;;
49910;SDS011;35803;53.096;5.844;2023-02-21T05:39:54;22.20;;;9.80;;
49910;SDS011;35803;53.096;5.844;2023-02-21T05:42:19;28.10;;;10.65;;
49910;SDS011;35803;53.096;5.844;2023-02-21T05:44:45;24.38;;;10.05;;
49910;SDS011;35803;53.096;5.844;2023-02-21T05:47:12;23.45;;;10.13;;
49910;SDS011;35803;53.096;5.844;2023-02-21T05:49:38;22.80;;;9.85;;
49910;SDS011;35803;53.096;5.844;2023-02-21T05:52:04;25.30;;;10.55;;
49910;SDS011;35803;53.096;5.844;2023-02-21T05:54:30;27.73;;;11.25;;
49910;SDS011;35803;53.096;5.844;2023-02-21T05:56:55;24.00;;;10.38;;
49910;SDS011;35803;53.096;5.844;2023-02-21T05:59:21;23.33;;;9.55;;
49910;SDS011;35803;53.096;5.844;2023-02-21T06:01:47;22.35;;;10.57;;
49910;SDS011;35803;53.096;5.844;2023-02-21T06:04:13;21.40;;;10.50;;
49910;SDS011;35803;53.096;5.844;2023-02-21T06:06:38;24.73;;;9.88;;
49910;SDS011;35803;53.096;5.844;2023-02-21T06:09:04;21.15;;;10.30;;
49910;SDS011;35803;53.096;5.844;2023-02-21T06:11:31;22.65;;;10.05;;
49910;SDS011;35803;53.096;5.844;2023-02-21T06:13:59;24.48;;;10.40;;
49910;SDS011;35803;53.096;5.844;2023-02-21T06:16:30;23.38;;;10.25;;
49910;SDS011;35803;53.096;5.844;2023-02-21T06:18:57;23.30;;;10.82;;
49910;SDS011;35803;53.096;5.844;2023-02-21T06:21:23;25.13;;;10.73;;
49910;SDS011;35803;53.096;5.844;2023-02-21T06:23:48;22.83;;;10.23;;
49910;SDS011;35803;53.096;5.844;2023-02-21T06:26:14;28.50;;;11.50;;
49910;SDS011;35803;53.096;5.844;2023-02-21T06:28:40;23.00;;;10.75;;
49910;SDS011;35803;53.096;5.844;2023-02-21T06:31:06;22.50;;;10.18;;
49910;SDS011;35803;53.096;5.844;2023-02-21T06:33:31;25.77;;;11.07;;
49910;SDS011;35803;53.096;5.844;2023-02-21T06:35:57;24.88;;;10.93;;
49910;SDS011;35803;53.096;5.844;2023-02-21T06:38:22;25.95;;;11.25;;
49910;SDS011;35803;53.096;5.844;2023-02-21T06:40:48;24.95;;;11.20;;
49910;SDS011;35803;53.096;5.844;2023-02-21T06:43:13;26.55;;;11.02;;
49910;SDS011;35803;53.096;5.844;2023-02-21T06:45:45;23.67;;;10.35;;
49910;SDS011;35803;53.096;5.844;2023-02-21T06:48:14;19.13;;;8.60;;
49910;SDS011;35803;53.096;5.844;2023-02-21T06:50:41;25.23;;;11.30;;
49910;SDS011;35803;53.096;5.844;2023-02-21T06:53:06;25.08;;;11.25;;
49910;SDS011;35803;53.096;5.844;2023-02-21T06:55:32;27.52;;;11.80;;
49910;SDS011;35803;53.096;5.844;2023-02-21T06:57:57;23.33;;;10.65;;
49910;SDS011;35803;53.096;5.844;2023-02-21T07:00:23;22.88;;;10.95;;
49910;SDS011;35803;53.096;5.844;2023-02-21T07:02:51;26.73;;;10.88;;
49910;SDS011;35803;53.096;5.844;2023-02-21T07:05:17;26.45;;;10.90;;
49910;SDS011;35803;53.096;5.844;2023-02-21T07:07:42;23.23;;;10.77;;
49910;SDS011;35803;53.096;5.844;2023-02-21T07:10:08;27.48;;;11.20;;
49910;SDS011;35803;53.096;5.844;2023-02-21T07:12:34;23.80;;;11.85;;
49910;SDS011;35803;53.096;5.844;2023-02-21T07:14:59;26.73;;;11.60;;
49910;SDS011;35803;53.096;5.844;2023-02-21T07:17:25;25.45;;;11.55;;
49910;SDS011;35803;53.096;5.844;2023-02-21T07:19:50;25.77;;;11.32;;
49910;SDS011;35803;53.096;5.844;2023-02-21T07:22:16;26.27;;;11.98;;
49910;SDS011;35803;53.096;5.844;2023-02-21T07:24:43;25.70;;;11.60;;
49910;SDS011;35803;53.096;5.844;2023-02-21T07:27:08;25.58;;;11.60;;
49910;SDS011;35803;53.096;5.844;2023-02-21T07:29:34;26.40;;;11.57;;
49910;SDS011;35803;53.096;5.844;2023-02-21T07:31:59;25.20;;;11.52;;
49910;SDS011;35803;53.096;5.844;2023-02-21T07:34:24;22.73;;;11.30;;
49910;SDS011;35803;53.096;5.844;2023-02-21T07:36:50;25.35;;;11.45;;
49910;SDS011;35803;53.096;5.844;2023-02-21T07:39:15;27.15;;;12.00;;
49910;SDS011;35803;53.096;5.844;2023-02-21T07:41:41;26.67;;;11.48;;
49910;SDS011;35803;53.096;5.844;2023-02-21T07:44:06;26.55;;;11.63;;
49910;SDS011;35803;53.096;5.844;2023-02-21T07:46:32;32.58;;;12.82;;
49910;SDS011;35803;53.096;5.844;2023-02-21T07:48:58;30.67;;;11.88;;
49910;SDS011;35803;53.096;5.844;2023-02-21T07:51:26;28.92;;;11.88;;
49910;SDS011;35803;53.096;5.844;2023-02-21T07:53:53;26.90;;;11.60;;
49910;SDS011;35803;53.096;5.844;2023-02-21T07:56:18;27.80;;;11.73;;
49910;SDS011;35803;53.096;5.844;2023-02-21T07:58:44;27.08;;;12.40;;
49910;SDS011;35803;53.096;5.844;2023-02-21T08:01:09;29.15;;;12.73;;
49910;SDS011;35803;53.096;5.844;2023-02-21T08:03:34;27.73;;;12.02;;
49910;SDS011;35803;53.096;5.844;2023-02-21T08:06:01;27.05;;;11.85;;
49910;SDS011;35803;53.096;5.844;2023-02-21T08:08:27;29.35;;;12.35;;
49910;SDS011;35803;53.096;5.844;2023-02-21T08:10:52;30.30;;;11.63;;
49910;SDS011;35803;53.096;5.844;2023-02-21T08:13:18;28.33;;;11.98;;
49910;SDS011;35803;53.096;5.844;2023-02-21T08:15:43;29.63;;;11.85;;
49910;SDS011;35803;53.096;5.844;2023-02-21T08:18:16;26.88;;;12.48;;
49910;SDS011;35803;53.096;5.844;2023-02-21T08:20:45;25.88;;;11.15;;
49910;SDS011;35803;53.096;5.844;2023-02-21T08:23:11;27.80;;;11.68;;
49910;SDS011;35803;53.096;5.844;2023-02-21T08:25:37;27.20;;;12.45;;
49910;SDS011;35803;53.096;5.844;2023-02-21T08:28:02;25.90;;;11.02;;
49910;SDS011;35803;53.096;5.844;2023-02-21T08:30:28;25.48;;;11.52;;
49910;SDS011;35803;53.096;5.844;2023-02-21T08:33:01;23.85;;;11.43;;
49910;SDS011;35803;53.096;5.844;2023-02-21T08:37:52;27.67;;;11.02;;
49910;SDS011;35803;53.096;5.844;2023-02-21T08:40:21;23.15;;;10.60;;
49910;SDS011;35803;53.096;5.844;2023-02-21T08:42:51;22.83;;;11.25;;
49910;SDS011;35803;53.096;5.844;2023-02-21T08:45:18;28.73;;;12.25;;
49910;SDS011;35803;53.096;5.844;2023-02-21T08:47:48;30.75;;;11.70;;
49910;SDS011;35803;53.096;5.844;2023-02-21T08:50:14;22.17;;;11.25;;
49910;SDS011;35803;53.096;5.844;2023-02-21T08:52:40;25.60;;;11.32;;
49910;SDS011;35803;53.096;5.844;2023-02-21T08:55:05;24.75;;;11.77;;
49910;SDS011;35803;53.096;5.844;2023-02-21T08:57:31;24.35;;;11.18;;
49910;SDS011;35803;53.096;5.844;2023-02-21T08:59:58;26.42;;;11.32;;
49910;SDS011;35803;53.096;5.844;2023-02-21T09:02:24;21.00;;;11.52;;
49910;SDS011;35803;53.096;5.844;2023-02-21T09:04:51;25.63;;;11.38;;
49910;SDS011;35803;53.096;5.844;2023-02-21T09:07:17;21.65;;;10.55;;
49910;SDS011;35803;53.096;5.844;2023-02-21T09:09:44;30.30;;;11.68;;
49910;SDS011;35803;53.096;5.844;2023-02-21T09:12:10;26.00;;;11.88;;
49910;SDS011;35803;53.096;5.844;2023-02-21T09:14:36;23.42;;;10.93;;
49910;SDS011;35803;53.096;5.844;2023-02-21T09:17:03;22.77;;;11.20;;
49910;SDS011;35803;53.096;5.844;2023-02-21T09:19:30;23.60;;;10.25;;
49910;SDS011;35803;53.096;5.844;2023-02-21T09:21:55;28.05;;;11.15;;
49910;SDS011;35803;53.096;5.844;2023-02-21T09:24:24;24.70;;;10.88;;
49910;SDS011;35803;53.096;5.844;2023-02-21T09:26:51;21.80;;;10.55;;
49910;SDS011;35803;53.096;5.844;2023-02-21T09:29:23;25.90;;;11.20;;
49910;SDS011;35803;53.096;5.844;2023-02-21T09:31:52;22.25;;;10.80;;
49910;SDS011;35803;53.096;5.844;2023-02-21T09:34:18;24.17;;;11.25;;
49910;SDS011;35803;53.096;5.844;2023-02-21T09:36:43;25.02;;;11.73;;
49910;SDS011;35803;53.096;5.844;2023-02-21T09:39:09;21.48;;;10.77;;
49910;SDS011;35803;53.096;5.844;2023-02-21T09:41:35;23.70;;;10.88;;
49910;SDS011;35803;53.096;5.844;2023-02-21T09:44:01;26.23;;;10.57;;
49910;SDS011;35803;53.096;5.844;2023-02-21T09:49:04;25.13;;;11.73;;
49910;SDS011;35803;53.096;5.844;2023-02-21T09:51:34;22.05;;;10.98;;
49910;SDS011;35803;53.096;5.844;2023-02-21T09:54:05;20.52;;;9.95;;
49910;SDS011;35803;53.096;5.844;2023-02-21T09:56:38;24.60;;;10.93;;
49910;SDS011;35803;53.096;5.844;2023-02-21T09:59:07;20.42;;;10.43;;
49910;SDS011;35803;53.096;5.844;2023-02-21T10:07:17;21.13;;;10.68;;
49910;SDS011;35803;53.096;5.844;2023-02-21T10:12:17;19.25;;;9.45;;
49910;SDS011;35803;53.096;5.844;2023-02-21T10:17:34;20.65;;;9.55;;
49910;SDS011;35803;53.096;5.844;2023-02-21T10:20:14;19.85;;;9.57;;
49910;SDS011;35803;53.096;5.844;2023-02-21T10:22:47;19.00;;;11.13;;
49910;SDS011;35803;53.096;5.844;2023-02-21T10:25:22;20.08;;;9.85;;
49910;SDS011;35803;53.096;5.844;2023-02-21T10:27:48;20.55;;;10.32;;
49910;SDS011;35803;53.096;5.844;2023-02-21T10:30:26;20.75;;;10.38;;
49910;SDS011;35803;53.096;5.844;2023-02-21T10:32:59;23.05;;;10.32;;
49910;SDS011;35803;53.096;5.844;2023-02-21T10:35:31;21.40;;;10.38;;
49910;SDS011;35803;53.096;5.844;2023-02-21T10:37:58;20.10;;;9.73;;
49910;SDS011;35803;53.096;5.844;2023-02-21T10:43:29;22.90;;;10.55;;
49910;SDS011;35803;53.096;5.844;2023-02-21T10:45:58;20.92;;;10.38;;
49910;SDS011;35803;53.096;5.844;2023-02-21T10:48:29;21.13;;;10.52;;
49910;SDS011;35803;53.096;5.844;2023-02-21T10:51:06;26.52;;;10.95;;
49910;SDS011;35803;53.096;5.844;2023-02-21T10:53:40;23.45;;;10.43;;
49910;SDS011;35803;53.096;5.844;2023-02-21T11:01:14;21.65;;;10.68;;
49910;SDS011;35803;53.096;5.844;2023-02-21T11:03:42;19.75;;;10.20;;
49910;SDS011;35803;53.096;5.844;2023-02-21T11:08:47;19.35;;;10.43;;
49910;SDS011;35803;53.096;5.844;2023-02-21T11:11:12;16.98;;;9.68;;
49910;SDS011;35803;53.096;5.844;2023-02-21T11:13:38;18.55;;;9.65;;
49910;SDS011;35803;53.096;5.844;2023-02-21T11:18:36;20.83;;;10.63;;
49910;SDS011;35803;53.096;5.844;2023-02-21T11:21:14;18.77;;;9.43;;
49910;SDS011;35803;53.096;5.844;2023-02-21T11:24:00;18.98;;;9.70;;
49910;SDS011;35803;53.096;5.844;2023-02-21T11:26:34;19.75;;;10.50;;
49910;SDS011;35803;53.096;5.844;2023-02-21T11:29:13;18.42;;;9.35;;
49910;SDS011;35803;53.096;5.844;2023-02-21T11:31:39;18.92;;;9.10;;
49910;SDS011;35803;53.096;5.844;2023-02-21T11:34:05;17.00;;;9.27;;
49910;SDS011;35803;53.096;5.844;2023-02-21T11:36:34;18.98;;;9.25;;
49910;SDS011;35803;53.096;5.844;2023-02-21T11:39:03;20.17;;;10.13;;
49910;SDS011;35803;53.096;5.844;2023-02-21T11:41:36;24.30;;;11.02;;
49910;SDS011;35803;53.096;5.844;2023-02-21T11:44:46;25.45;;;10.90;;
49910;SDS011;35803;53.096;5.844;2023-02-21T11:47:28;20.77;;;10.45;;
49910;SDS011;35803;53.096;5.844;2023-02-21T11:50:11;21.27;;;10.05;;
49910;SDS011;35803;53.096;5.844;2023-02-21T11:52:46;20.33;;;9.88;;
49910;SDS011;35803;53.096;5.844;2023-02-21T11:55:27;16.70;;;9.25;;
49910;SDS011;35803;53.096;5.844;2023-02-21T12:07:17;16.80;;;9.18;;
49910;SDS011;35803;53.096;5.844;2023-02-21T12:09:55;16.70;;;9.18;;
49910;SDS011;35803;53.096;5.844;2023-02-21T12:12:51;18.80;;;9.73;;
49910;SDS011;35803;53.096;5.844;2023-02-21T12:15:38;19.88;;;8.85;;
49910;SDS011;35803;53.096;5.844;2023-02-21T12:48:53;15.93;;;8.70;;
49910;SDS011;35803;53.096;5.844;2023-02-21T12:54:37;17.77;;;8.30;;
49910;SDS011;35803;53.096;5.844;2023-02-21T12:57:15;22.92;;;9.50;;
49910;SDS011;35803;53.096;5.844;2023-02-21T13:02:41;14.63;;;8.65;;
49910;SDS011;35803;53.096;5.844;2023-02-21T13:11:11;15.88;;;8.70;;
49910;SDS011;35803;53.096;5.844;2023-02-21T13:13:46;15.52;;;8.15;;
49910;SDS011;35803;53.096;5.844;2023-02-21T13:16:19;16.63;;;8.40;;
49910;SDS011;35803;53.096;5.844;2023-02-21T13:18:50;16.92;;;8.82;;
49910;SDS011;35803;53.096;5.844;2023-02-21T13:29:35;17.45;;;9.85;;
49910;SDS011;35803;53.096;5.844;2023-02-21T13:34:41;20.35;;;10.60;;
49910;SDS011;35803;53.096;5.844;2023-02-21T13:37:20;18.30;;;10.60;;
49910;SDS011;35803;53.096;5.844;2023-02-21T13:40:02;20.17;;;11.40;;
49910;SDS011;35803;53.096;5.844;2023-02-21T13:42:41;17.17;;;9.80;;
49910;SDS011;35803;53.096;5.844;2023-02-21T13:45:22;17.88;;;10.05;;
49910;SDS011;35803;53.096;5.844;2023-02-21T13:55:32;17.60;;;10.50;;
49910;SDS011;35803;53.096;5.844;2023-02-21T14:00:45;13.80;;;8.90;;
49910;SDS011;35803;53.096;5.844;2023-02-21T14:13:58;14.93;;;8.93;;
49910;SDS011;35803;53.096;5.844;2023-02-21T14:16:36;15.65;;;9.05;;
49910;SDS011;35803;53.096;5.844;2023-02-21T14:25:21;17.33;;;9.30;;
49910;SDS011;35803;53.096;5.844;2023-02-21T14:31:52;16.48;;;9.13;;
49910;SDS011;35803;53.096;5.844;2023-02-21T14:40:34;16.45;;;9.15;;
49910;SDS011;35803;53.096;5.844;2023-02-21T14:43:26;21.80;;;10.43;;
49910;SDS011;35803;53.096;5.844;2023-02-21T14:48:54;20.98;;;9.65;;
49910;SDS011;35803;53.096;5.844;2023-02-21T14:51:47;16.30;;;9.45;;
49910;SDS011;35803;53.096;5.844;2023-02-21T15:02:48;15.48;;;8.55;;
49910;SDS011;35803;53.096;5.844;2023-02-21T15:08:21;16.65;;;9.27;;
49910;SDS011;35803;53.096;5.844;2023-02-21T15:10:50;16.20;;;8.65;;
49910;SDS011;35803;53.096;5.844;2023-02-21T15:13:30;14.40;;;7.95;;
49910;SDS011;35803;53.096;5.844;2023-02-21T15:16:07;18.90;;;9.00;;
49910;SDS011;35803;53.096;5.844;2023-02-21T15:18:35;16.45;;;8.70;;
49910;SDS011;35803;53.096;5.844;2023-02-21T15:23:44;18.83;;;9.10;;
49910;SDS011;35803;53.096;5.844;2023-02-21T15:26:18;15.60;;;9.35;;
49910;SDS011;35803;53.096;5.844;2023-02-21T15:29:08;15.43;;;8.63;;
49910;SDS011;35803;53.096;5.844;2023-02-21T15:34:21;17.77;;;9.43;;
49910;SDS011;35803;53.096;5.844;2023-02-21T15:36:59;18.55;;;9.30;;
49910;SDS011;35803;53.096;5.844;2023-02-21T15:39:52;16.15;;;8.82;;
49910;SDS011;35803;53.096;5.844;2023-02-21T15:42:21;14.93;;;9.00;;
49910;SDS011;35803;53.096;5.844;2023-02-21T15:44:48;17.45;;;9.05;;
49910;SDS011;35803;53.096;5.844;2023-02-21T15:47:20;17.88;;;9.38;;
49910;SDS011;35803;53.096;5.844;2023-02-21T15:52:49;15.27;;;8.63;;
49910;SDS011;35803;53.096;5.844;2023-02-21T15:57:44;17.48;;;9.68;;
49910;SDS011;35803;53.096;5.844;2023-02-21T16:05:54;16.08;;;9.10;;
49910;SDS011;35803;53.096;5.844;2023-02-21T16:08:32;16.63;;;9.55;;
49910;SDS011;35803;53.096;5.844;2023-02-21T16:11:02;19.58;;;10.20;;
49910;SDS011;35803;53.096;5.844;2023-02-21T16:13:37;19.65;;;10.40;;
49910;SDS011;35803;53.096;5.844;2023-02-21T16:16:04;23.35;;;11.50;;
49910;SDS011;35803;53.096;5.844;2023-02-21T16:18:30;21.20;;;10.85;;
49910;SDS011;35803;53.096;5.844;2023-02-21T16:21:00;22.25;;;11.40;;
49910;SDS011;35803;53.096;5.844;2023-02-21T16:23:34;21.52;;;11.18;;
49910;SDS011;35803;53.096;5.844;2023-02-21T16:28:33;23.70;;;10.77;;
49910;SDS011;35803;53.096;5.844;2023-02-21T16:31:01;21.88;;;11.23;;
49910;SDS011;35803;53.096;5.844;2023-02-21T16:33:28;23.05;;;10.55;;
49910;SDS011;35803;53.096;5.844;2023-02-21T16:35:53;23.55;;;11.57;;
49910;SDS011;35803;53.096;5.844;2023-02-21T16:38:27;24.27;;;12.23;;
49910;SDS011;35803;53.096;5.844;2023-02-21T16:40:52;22.05;;;10.65;;
49910;SDS011;35803;53.096;5.844;2023-02-21T16:43:19;22.42;;;11.90;;
49910;SDS011;35803;53.096;5.844;2023-02-21T16:45:46;23.48;;;11.38;;
49910;SDS011;35803;53.096;5.844;2023-02-21T16:48:16;22.20;;;11.55;;
49910;SDS011;35803;53.096;5.844;2023-02-21T16:50:46;24.45;;;12.15;;
49910;SDS011;35803;53.096;5.844;2023-02-21T16:53:12;22.58;;;11.48;;
49910;SDS011;35803;53.096;5.844;2023-02-21T16:55:42;23.33;;;10.73;;
49910;SDS011;35803;53.096;5.844;2023-02-21T17:00:58;22.50;;;10.63;;
49910;SDS011;35803;53.096;5.844;2023-02-21T17:03:26;24.67;;;11.50;;
49910;SDS011;35803;53.096;5.844;2023-02-21T17:05:55;27.70;;;12.23;;
49910;SDS011;35803;53.096;5.844;2023-02-21T17:08:27;26.60;;;12.25;;
49910;SDS011;35803;53.096;5.844;2023-02-21T17:10:58;24.85;;;11.18;;
49910;SDS011;35803;53.096;5.844;2023-02-21T17:13:24;24.48;;;12.00;;
49910;SDS011;35803;53.096;5.844;2023-02-21T17:15:50;21.73;;;11.02;;
49910;SDS011;35803;53.096;5.844;2023-02-21T17:18:15;22.55;;;10.90;;
49910;SDS011;35803;53.096;5.844;2023-02-21T17:20:41;24.20;;;12.05;;
49910;SDS011;35803;53.096;5.844;2023-02-21T17:23:07;26.20;;;12.35;;
49910;SDS011;35803;53.096;5.844;2023-02-21T17:25:32;27.55;;;12.65;;
49910;SDS011;35803;53.096;5.844;2023-02-21T17:28:00;22.73;;;11.55;;
49910;SDS011;35803;53.096;5.844;2023-02-21T17:30:26;23.25;;;11.50;;
49910;SDS011;35803;53.096;5.844;2023-02-21T17:32:52;24.35;;;11.00;;
49910;SDS011;35803;53.096;5.844;2023-02-21T17:35:18;26.33;;;13.05;;
49910;SDS011;35803;53.096;5.844;2023-02-21T17:37:45;25.60;;;12.23;;
49910;SDS011;35803;53.096;5.844;2023-02-21T17:40:11;25.67;;;12.77;;
49910;SDS011;35803;53.096;5.844;2023-02-21T17:42:38;25.92;;;12.40;;
49910;SDS011;35803;53.096;5.844;2023-02-21T17:45:04;23.75;;;12.15;;
49910;SDS011;35803;53.096;5.844;2023-02-21T17:47:30;27.13;;;13.30;;
49910;SDS011;35803;53.096;5.844;2023-02-21T17:49:56;26.35;;;13.05;;
49910;SDS011;35803;53.096;5.844;2023-02-21T17:52:24;24.85;;;13.20;;
49910;SDS011;35803;53.096;5.844;2023-02-21T17:54:50;28.55;;;13.10;;
49910;SDS011;35803;53.096;5.844;2023-02-21T17:57:18;29.50;;;12.82;;
49910;SDS011;35803;53.096;5.844;2023-02-21T17:59:44;22.90;;;11.88;;
49910;SDS011;35803;53.096;5.844;2023-02-21T18:02:14;30.20;;;13.63;;
49910;SDS011;35803;53.096;5.844;2023-02-21T18:04:40;29.08;;;13.20;;
49910;SDS011;35803;53.096;5.844;2023-02-21T18:07:06;30.90;;;13.45;;
49910;SDS011;35803;53.096;5.844;2023-02-21T18:09:32;27.63;;;12.02;;
49910;SDS011;35803;53.096;5.844;2023-02-21T18:11:58;26.23;;;11.93;;